Flight Track Log - Related Links

Times and Time Zones

All times are in EDT time to prevent confusion due to time zone crossing. See the SKW4567 flight status page for this flight to view local times or setup timezone preferences in your user account.

Time Position Orientation Groundspeed Altitude Reporting Facility
EDT Latitude Longitude Course Direction KTS MPH feet Rate Location/Type
Sat 10:12:44 AM 44.9000 -93.2500 200° South 157 181 2,100  Level Minneapolis TRACON
Sat 10:13:31 AM 44.9194 -93.2992 299° West 200 230 3,500 2,389 Climbing Minneapolis Center
Sat 10:14:32 AM 44.9075 -93.3900 260° West 261 300 6,400 1,770 Climbing Minneapolis Center
Sat 10:15:00 AM 44.4319 -93.4130 196° South  Level Estimated
Sat 10:15:33 AM 44.8333 -93.4239 198° South 289 333 7,100  Level Minneapolis Center
Sat 10:16:00 AM 44.3193 -93.4604 206° Southwest  Level Estimated
Sat 10:16:35 AM 44.7542 -93.4550 196° South 300 345 9,600  Level Minneapolis Center
Sat 10:17:00 AM 44.2067 -93.5076 200° South  Level Estimated
Sat 10:17:36 AM 44.6525 -93.5078 200° South 332 382 12,300  Level Minneapolis Center
Sat 10:18:00 AM 44.0941 -93.5546 200° South  Level Estimated
Sat 10:18:37 AM 44.5628 -93.5528 200° South 345 397 14,800  Level Minneapolis Center
Sat 10:19:39 AM 44.4711 -93.5986 200° South 353 406 17,300 2,000 Climbing Minneapolis Center
Sat 10:20:40 AM 44.3833 -93.6536 204° Southwest 349 402 18,900 1,525 Climbing Minneapolis Center
Sat 10:21:41 AM 44.2958 -93.7267 211° Southwest 364 419 20,400 1,561 Climbing Minneapolis Center
Sat 10:22:43 AM 44.2022 -93.8014 210° Southwest 384 442 22,100 1,805 Climbing Minneapolis Center
Sat 10:23:44 AM 44.1078 -93.8778 210° Southwest 392 451 24,100 2,146 Climbing Minneapolis Center
Sat 10:24:46 AM 43.9964 -93.9678 210° Southwest 388 447 26,500 1,756 Climbing Minneapolis Center
Sat 10:25:47 AM 43.8925 -94.0211 200° South 403 464 27,700 1,073 Climbing Minneapolis Center
Sat 10:26:49 AM 43.7736 -94.0456 188° South 429 494 28,700 976 Climbing Minneapolis Center
Sat 10:27:50 AM 43.6514 -94.0733 189° South 439 505 29,700 984 Climbing Minneapolis Center
Sat 10:28:51 AM 43.5242 -94.1022 189° South 448 516 30,700 976 Climbing Minneapolis Center
Sat 10:29:53 AM 43.3989 -94.1272 188° South 456 525 31,700 976 Climbing Minneapolis Center
Sat 10:30:54 AM 43.2731 -94.1556 189° South 460 529 32,700 976 Climbing Minneapolis Center
Sat 10:31:56 AM 43.1481 -94.1822 189° South 459 528 33,700 976 Climbing Minneapolis Center
Sat 10:32:57 AM 43.0242 -94.2092 189° South 457 526 34,700 1,073 Climbing Minneapolis Center
Sat 10:33:59 AM 42.8778 -94.2397 189° South 450 518 35,900 634 Climbing Minneapolis Center
Sat 10:35:00 AM 42.7539 -94.2664 189° South 453 521 36,000 49 Climbing Minneapolis Center
Sat 10:36:02 AM 42.6292 -94.2936 189° South 456 525 36,000  Level Minneapolis Center
Sat 10:37:03 AM 42.5003 -94.3236 190° South 468 539 36,000  Level Minneapolis Center
Sat 10:38:05 AM 42.3606 -94.3558 190° South 474 545 36,000  Level Minneapolis Center
Sat 10:39:06 AM 42.2344 -94.3878 191° South 464 534 36,000  Level Minneapolis Center
Sat 10:40:07 AM 42.1092 -94.4189 190° South 459 528 36,000  Level Minneapolis Center
Sat 10:41:09 AM 41.9842 -94.4492 190° South 456 525 36,000  Level Minneapolis Center
Sat 10:42:10 AM 41.8617 -94.4775 190° South 449 517 36,000  Level Minneapolis Center
Sat 10:43:12 AM 41.7403 -94.5078 191° South 443 510 36,000  Level Minneapolis Center
Sat 10:44:13 AM 41.5944 -94.5431 190° South 442 509 36,000  Level Minneapolis Center
Sat 10:45:14 AM 41.4706 -94.5725 190° South 447 514 36,000  Level Minneapolis Center
Sat 10:46:16 AM 41.3483 -94.6014 190° South 445 512 36,000  Level Minneapolis Center
Sat 10:47:17 AM 41.2253 -94.6308 190° South 446 513 36,000  Level Minneapolis Center
Sat 10:48:19 AM 41.1019 -94.6597 190° South 447 514 36,000  Level Minneapolis Center
Sat 10:49:20 AM 40.9783 -94.6897 190° South 449 517 36,000  Level Minneapolis Center
Sat 10:50:21 AM 40.8558 -94.7186 190° South 447 514 36,000  Level Minneapolis Center
Sat 10:51:23 AM 40.7347 -94.7472 190° South 444 511 36,000  Level Minneapolis Center
Sat 10:52:24 AM 40.6156 -94.7736 190° South 440 506 36,000  Level Minneapolis Center
Sat 10:53:25 AM 40.5197 -94.7969 190° South 437 503 36,000  Level Minneapolis Center
Sat 10:54:27 AM 40.3767 -94.8308 190° South 435 501 36,000  Level Minneapolis Center
Sat 10:55:28 AM 40.2378 -94.8631 190° South 426 490 36,000  Level Minneapolis Center
Sat 10:56:29 AM 40.1197 -94.8906 190° South 427 491 36,000  Level Minneapolis Center
Sat 10:57:00 AM 40.0569 -94.9008 187° South 429 494 36,000  Level Kansas City Center
Sat 10:58:02 AM 39.9447 -94.9344 193° South 432 497 36,000  Level Kansas City Center
Sat 10:59:04 AM 39.8433 -94.9956 205° Southwest 423 487 36,000  Level Kansas City Center
Sat 11:00:05 AM 39.7231 -95.0681 205° Southwest 425 489 36,000  Level Kansas City Center
Sat 11:01:07 AM 39.6172 -95.1344 206° Southwest 438 504 36,000  Level Kansas City Center
Sat 11:02:09 AM 39.4914 -95.2100 205° Southwest 445 512 36,000  Level Kansas City Center
Sat 11:03:10 AM 39.3797 -95.2781 205° Southwest 446 513 36,000  Level Kansas City Center
Sat 11:04:12 AM 39.2569 -95.3508 205° Southwest 450 518 36,000  Level Kansas City Center
Sat 11:05:14 AM 39.1422 -95.4206 205° Southwest 456 525 36,000  Level Kansas City Center
Sat 11:06:15 AM 39.0242 -95.4900 205° Southwest 457 526 36,000  Level Kansas City Center
Sat 11:07:17 AM 38.9153 -95.5547 205° Southwest 454 522 36,000  Level Kansas City Center
Sat 11:08:19 AM 38.7869 -95.6300 205° Southwest 453 521 36,000  Level Kansas City Center
Sat 11:09:20 AM 38.6769 -95.6953 205° Southwest 455 524 36,000  Level Kansas City Center
Sat 11:10:22 AM 38.5492 -95.7697 205° Southwest 452 520 36,000  Level Kansas City Center
Sat 11:11:24 AM 38.4406 -95.8331 205° Southwest 450 518 36,000  Level Kansas City Center
Sat 11:12:25 AM 38.3308 -95.8964 204° Southwest 451 519 36,000  Level Kansas City Center
Sat 11:13:27 AM 38.2047 -95.9703 205° Southwest 448 516 36,000  Level Kansas City Center
Sat 11:14:29 AM 38.0956 -96.0328 204° Southwest 448 516 36,000  Level Kansas City Center
Sat 11:15:31 AM 37.9672 -96.1064 204° Southwest 448 516 36,000  Level Kansas City Center
Sat 11:16:32 AM 37.8511 -96.1731 204° Southwest 451 519 36,000  Level Kansas City Center
Sat 11:17:34 AM 37.7383 -96.2375 204° Southwest 446 513 36,000  Level Kansas City Center
Sat 11:18:36 AM 37.6314 -96.2981 204° Southwest 445 512 36,000  Level Kansas City Center
Sat 11:19:38 AM 37.5194 -96.3614 204° Southwest 442 509 36,000  Level Kansas City Center
Sat 11:20:39 AM 37.3828 -96.4372 204° Southwest 445 512 36,000  Level Kansas City Center
Sat 11:21:41 AM 37.2828 -96.4950 205° Southwest 450 518 36,000  Level Kansas City Center
Sat 11:22:43 AM 37.1678 -96.5592 204° Southwest 451 519 36,000  Level Kansas City Center
Sat 11:23:44 AM 37.0383 -96.6314 204° Southwest 452 520 36,000  Level Kansas City Center
Sat 11:24:46 AM 36.9231 -96.6964 204° Southwest 454 522 36,000  Level Kansas City Center
Sat 11:25:48 AM 36.8100 -96.7589 204° Southwest 449 517 36,000  Level Kansas City Center
Sat 11:26:50 AM 36.6953 -96.8236 204° Southwest 450 518 36,000  Level Kansas City Center
Sat 11:27:51 AM 36.5769 -96.8889 204° Southwest 453 521 36,000  Level Kansas City Center
Sat 11:28:53 AM 36.4386 -96.9650 204° Southwest 454 522 36,000  Level Kansas City Center
Sat 11:29:55 AM 36.3228 -97.0283 204° Southwest 455 524 36,000  Level Kansas City Center
Sat 11:30:57 AM 36.2067 -97.0917 204° Southwest 456 525 36,000  Level Kansas City Center
Sat 11:31:59 AM 36.0908 -97.1544 204° Southwest 457 526 36,000  Level Kansas City Center
Sat 11:33:00 AM 35.9756 -97.2175 204° Southwest 454 522 36,000  Level Kansas City Center
Sat 11:34:02 AM 35.8603 -97.2794 204° Southwest 453 521 36,000  Level Kansas City Center
Sat 11:34:49 AM 35.7669 -97.3317 204° Southwest 460 529 36,000  Level Fort Worth Center
Sat 11:35:49 AM 35.6439 -97.3575 190° South 455 524 36,000  Level Fort Worth Center
Sat 11:36:49 AM 35.5167 -97.3803 188° South 450 518 36,000  Level Fort Worth Center
Sat 11:37:49 AM 35.3978 -97.3958 186° South 456 525 36,000  Level Fort Worth Center
Sat 11:38:49 AM 35.2769 -97.4264 192° South 450 518 36,000  Level Fort Worth Center
Sat 11:39:49 AM 35.1392 -97.4719 195° South 440 506 36,000  Level Fort Worth Center
Sat 11:40:49 AM 35.0244 -97.5100 195° South 448 516 36,000  Level Fort Worth Center
Sat 11:41:49 AM 34.9078 -97.5478 195° South 448 516 36,000  Level Fort Worth Center
Sat 11:42:49 AM 34.7928 -97.5828 194° South 438 504 36,000  Level Fort Worth Center
Sat 11:43:49 AM 34.6803 -97.6206 195° South 433 498 36,000  Level Fort Worth Center
Sat 11:44:49 AM 34.5653 -97.6556 194° South 433 498 36,000  Level Fort Worth Center
Sat 11:45:49 AM 34.4525 -97.6906 194° South 433 498 36,000  Level Fort Worth Center
Sat 11:46:49 AM 34.3397 -97.7253 194° South 428 493 36,000  Level Fort Worth Center
Sat 11:47:49 AM 34.2292 -97.7625 196° South 423 487 36,000  Level Fort Worth Center
Sat 11:48:49 AM 34.1186 -97.7947 194° South 418 481 36,000  Level Fort Worth Center
Sat 11:49:49 AM 34.0244 -97.8244 195° South 400 460 36,000  Level Fort Worth Center
Sat 11:50:49 AM 33.9033 -97.8614 194° South 400 460 36,000  Level Fort Worth Center
Sat 11:51:49 AM 33.7947 -97.8933 194° South 400 460 36,000  Level Fort Worth Center
Sat 11:52:49 AM 33.6861 -97.9278 195° South 400 460 36,000  Level Fort Worth Center
Sat 11:53:49 AM 33.5878 -97.9544 193° South 400 460 36,000  Level Fort Worth Center
Sat 11:54:49 AM 33.4686 -97.9936 195° South 400 460 36,000  Level Fort Worth Center
Sat 11:55:49 AM 33.3619 -98.0253 194° South 400 460 36,000  Level Fort Worth Center
Sat 11:56:49 AM 33.2556 -98.0594 195° South 395 455 36,000  Level Fort Worth Center
Sat 11:57:49 AM 33.1467 -98.0908 194° South 395 455 36,000  Level Fort Worth Center
Sat 11:58:49 AM 33.0422 -98.1247 195° South 395 455 36,000  Level Fort Worth Center
Sat 11:59:49 AM 32.9375 -98.1561 194° South 395 455 36,000  Level Fort Worth Center
Sat 12:00:49 PM 32.8331 -98.1872 194° South 395 455 36,000  Level Fort Worth Center
Sat 12:01:49 PM 32.7283 -98.2183 194° South 395 455 36,000  Level Fort Worth Center
Sat 12:02:49 PM 32.6239 -98.2497 194° South 395 455 36,000  Level Fort Worth Center
Sat 12:03:49 PM 32.5214 -98.2806 194° South 395 455 36,000  Level Fort Worth Center
Sat 12:04:49 PM 32.4167 -98.3117 194° South 395 455 36,000  Level Fort Worth Center
Sat 12:05:49 PM 32.3122 -98.3425 194° South 390 449 36,000  Level Fort Worth Center
Sat 12:06:49 PM 32.2117 -98.3758 196° South 390 449 36,000 -300 Level Fort Worth Center
Sat 12:07:49 PM 32.1050 -98.4067 194° South 390 449 35,400 -900 Descending Fort Worth Center
Sat 12:08:49 PM 32.0044 -98.4350 193° South 383 441 34,200 -1,171 Descending Fort Worth Center
Sat 12:11:14 PM 31.7742 -98.5036 194° South 366 421 31,400 -1,159 Descending Houston Center
Sat 12:12:16 PM 31.6744 -98.5333 194° South 366 421 30,200 -1,171 Descending Houston Center
Sat 12:13:17 PM 31.5747 -98.5625 194° South 366 421 29,000 -585 Descending Houston Center
Sat 12:14:19 PM 31.4728 -98.5925 194° South 374 430 29,000  Level Houston Center
Sat 12:15:20 PM 31.3681 -98.6222 194° South 383 441 29,000 -683 Level Houston Center
Sat 12:16:22 PM 31.2397 -98.6594 194° South 400 460 27,600 -1,403 Descending Houston Center
Sat 12:17:24 PM 31.1325 -98.6908 194° South 395 455 26,100 -1,463 Descending Houston Center
Sat 12:18:25 PM 31.0286 -98.7211 194° South 384 442 24,600 -1,463 Descending Houston Center
Sat 12:19:27 PM 30.9206 -98.7528 194° South 394 453 23,100 -1,790 Descending Houston Center
Sat 12:20:29 PM 30.8050 -98.7514 179° South 412 474 20,900 -2,146 Descending Houston Center
Sat 12:21:30 PM 30.6967 -98.7444 177° South 392 451 18,700 -2,049 Descending Houston Center
Sat 12:22:32 PM 30.5925 -98.7364 176° South 377 434 16,700 -1,935 Descending Houston Center
Sat 12:23:34 PM 30.4822 -98.7286 177° South 390 449 14,700 -1,951 Descending Houston Center
Sat 12:24:35 PM 30.3711 -98.7200 176° South 396 456 12,700 -2,139 Descending Houston Center
Sat 12:25:29 PM 30.2569 -98.7111 176° South 386 444 10,600 -1,857 Descending Houston Center
Sat 12:25:59 PM 30.2125 -98.7092 178° South 370 426 10,100 -429 Descending Houston Center
Sat 12:26:39 PM 30.1500 -98.7081 179° South 321 369 10,100  Level Houston Center
Sat 12:27:00 PM 30.1239 -98.7028 170° South 307 353 10,100  Level Houston Center
Sat 12:27:40 PM 30.0642 -98.6875 168° South 316 364 10,100 -647 Level Houston Center
Sat 12:28:42 PM 29.9750 -98.6664 168° South 302 348 9,000 -1,016 Descending Houston Center
Sat 12:29:44 PM 29.8986 -98.6475 168° South 282 325 8,000 -1,139 Descending Houston Center
Sat 12:30:01 PM 29.8750 -98.6431 171° South 275 316 7,500 -1,462 Descending Houston Center
Sat 12:31:02 PM 29.8000 -98.6256 169° South 275 316 6,100 -792 Descending Houston Center
Sat 12:31:47 PM 29.7447 -98.6108 167° South 266 306 6,100  Level Houston Center
Sat 12:32:03 PM 29.7289 -98.6075 170° South 261 300 6,100 -97 Level Houston Center
Sat 12:32:49 PM 29.6736 -98.5947 169° South 262 302 6,000 -778 Descending Houston Center
Sat 12:33:51 PM 29.6039 -98.5794 169° South 256 295 4,700 -1,073 Descending Houston Center
Sat 12:34:52 PM 29.5292 -98.5808 181° South 243 280 3,800 -885 Descending Houston Center

Login

Don't have an account? Register now (free) for customized features, flight alerts, and more!